createdAt,value
2023-04-01T00:00:58.695Z,4.63
2023-04-01T00:03:27.898Z,4.25
2023-04-01T00:05:58.350Z,5.60
2023-04-01T00:08:25.663Z,7.33
2023-04-01T00:10:52.236Z,5.85
2023-04-01T00:13:24.712Z,4.60
2023-04-01T00:15:51.530Z,4.45
2023-04-01T00:18:20.630Z,4.45
2023-04-01T00:20:51.566Z,5.30
2023-04-01T00:23:19.846Z,6.55
2023-04-01T00:25:49.439Z,6.93
2023-04-01T00:28:22.081Z,7.63
2023-04-01T00:30:48.690Z,7.18
2023-04-01T00:33:21.131Z,4.60
2023-04-01T00:35:50.317Z,5.80
2023-04-01T00:38:17.974Z,6.82
2023-04-01T00:40:47.264Z,5.82
2023-04-01T00:43:21.402Z,6.07
2023-04-01T00:45:50.696Z,4.23
2023-04-01T00:48:22.281Z,5.95
2023-04-01T00:50:58.323Z,5.70
2023-04-01T00:53:25.672Z,4.65
2023-04-01T00:56:02.481Z,5.35
2023-04-01T00:58:34.038Z,4.17
2023-04-01T01:01:03.352Z,5.32
2023-04-01T01:03:30.038Z,7.95
2023-04-01T01:06:18.098Z,6.53
2023-04-01T01:08:57.340Z,5.90
2023-04-01T01:11:42.586Z,5.40
2023-04-01T01:14:34.564Z,6.80
2023-04-01T01:17:14.835Z,6.53
2023-04-01T01:20:25.869Z,6.75
2023-04-01T01:23:19.347Z,5.40
2023-04-01T01:26:13.412Z,8.13
2023-04-01T01:28:55.020Z,6.03
2023-04-01T01:31:34.488Z,7.03
2023-04-01T01:34:37.014Z,4.22
2023-04-01T01:37:11.876Z,6.07
2023-04-01T01:39:40.068Z,6.57
2023-04-01T01:42:10.709Z,4.93
2023-04-01T01:44:39.153Z,6.75
2023-04-01T01:47:06.708Z,5.57
2023-04-01T01:49:37.924Z,9.60
2023-04-01T01:52:04.750Z,6.30
2023-04-01T01:54:31.768Z,5.38
2023-04-01T01:57:23.053Z,6.43
2023-04-01T01:59:56.528Z,6.32
2023-04-01T02:02:24.573Z,5.65
2023-04-01T02:04:55.118Z,6.53
2023-04-01T02:07:30.851Z,5.95
2023-04-01T02:10:01.021Z,6.95
2023-04-01T02:12:29.925Z,5.65
2023-04-01T02:15:01.231Z,6.22
2023-04-01T02:17:31.046Z,5.47
2023-04-01T02:20:02.088Z,5.10
2023-04-01T02:22:37.690Z,6.50
2023-04-01T02:25:09.574Z,6.63
2023-04-01T02:27:36.639Z,5.50
2023-04-01T02:30:03.894Z,5.83
2023-04-01T02:32:32.482Z,5.13
2023-04-01T02:35:01.135Z,5.22
2023-04-01T02:37:31.109Z,5.45
2023-04-01T02:40:04.603Z,7.75
2023-04-01T02:42:31.171Z,5.00
2023-04-01T02:45:00.147Z,4.20
2023-04-01T02:47:26.850Z,5.72
2023-04-01T02:49:58.902Z,7.10
2023-04-01T02:52:26.323Z,6.78
2023-04-01T02:54:53.004Z,5.70
2023-04-01T02:57:21.995Z,5.10
2023-04-01T02:59:48.849Z,4.00
2023-04-01T03:02:16.400Z,5.38
2023-04-01T03:04:43.404Z,7.00
2023-04-01T03:07:13.372Z,5.53
2023-04-01T03:09:42.308Z,6.60
2023-04-01T03:12:11.140Z,5.45
2023-04-01T03:14:37.688Z,4.78
2023-04-01T03:17:04.243Z,6.30
2023-04-01T03:19:30.895Z,5.93
2023-04-01T03:21:57.475Z,4.60
2023-04-01T03:24:26.353Z,5.20
2023-04-01T03:26:55.301Z,5.30
2023-04-01T03:29:21.822Z,4.63
2023-04-01T03:31:48.469Z,4.77
2023-04-01T03:34:15.041Z,4.78
2023-04-01T03:36:41.670Z,4.55
2023-04-01T03:39:08.298Z,4.07
2023-04-01T03:41:38.005Z,5.90
2023-04-01T03:44:04.574Z,5.60
2023-04-01T03:46:33.558Z,4.80
2023-04-01T03:49:00.195Z,4.68
2023-04-01T03:51:31.708Z,5.07
2023-04-01T03:54:02.856Z,3.38
2023-04-01T03:56:29.396Z,3.90
2023-04-01T03:58:56.116Z,3.70
2023-04-01T04:01:23.418Z,4.47
2023-04-01T04:03:51.087Z,4.63
2023-04-01T04:06:22.102Z,3.72
2023-04-01T04:08:49.025Z,3.90
2023-04-01T04:11:16.088Z,4.55
2023-04-01T04:13:43.919Z,4.32
2023-04-01T04:16:13.563Z,4.47
2023-04-01T04:18:40.185Z,5.60
2023-04-01T04:21:07.188Z,4.77
2023-04-01T04:23:37.002Z,3.85
2023-04-01T04:26:10.394Z,4.40
2023-04-01T04:28:37.007Z,3.50
2023-04-01T04:31:07.507Z,4.30
2023-04-01T04:33:35.426Z,5.00
2023-04-01T04:36:02.447Z,3.20
2023-04-01T04:38:31.992Z,5.13
2023-04-01T04:41:00.909Z,3.78
2023-04-01T04:43:29.958Z,4.47
2023-04-01T04:45:58.781Z,4.17
2023-04-01T04:48:25.499Z,3.88
2023-04-01T04:50:52.145Z,3.95
2023-04-01T04:53:19.827Z,4.45
2023-04-01T04:55:51.106Z,3.72
2023-04-01T04:58:18.377Z,3.93
2023-04-01T05:00:47.349Z,4.28
2023-04-01T05:03:14.700Z,2.58
2023-04-01T05:05:48.774Z,5.45
2023-04-01T05:08:18.102Z,4.53
2023-04-01T05:10:45.749Z,3.40
2023-04-01T05:13:14.692Z,3.83
2023-04-01T05:15:43.510Z,4.65
2023-04-01T05:18:13.167Z,4.07
2023-04-01T05:20:47.613Z,4.00
2023-04-01T05:23:17.023Z,2.67
2023-04-01T05:25:43.990Z,3.95
2023-04-01T05:28:12.948Z,4.25
2023-04-01T05:30:43.120Z,4.07
2023-04-01T05:33:13.557Z,2.92
2023-04-01T05:35:43.625Z,4.50
2023-04-01T05:38:12.360Z,3.97
2023-04-01T05:40:38.981Z,2.72
2023-04-01T05:43:05.523Z,4.47
2023-04-01T05:45:35.321Z,3.85
2023-04-01T05:48:02.547Z,3.03
2023-04-01T05:50:29.240Z,5.63
2023-04-01T05:52:55.876Z,3.15
2023-04-01T05:55:22.672Z,2.80
2023-04-01T05:57:51.636Z,3.97
2023-04-01T06:00:23.339Z,5.50
2023-04-01T06:02:49.997Z,6.00
2023-04-01T06:05:24.139Z,5.07
2023-04-01T06:07:56.404Z,5.15
2023-04-01T06:10:46.529Z,4.65
2023-04-01T06:13:39.066Z,3.50
2023-04-01T06:16:26.194Z,2.92
2023-04-01T06:19:14.448Z,4.13
2023-04-01T06:22:13.921Z,3.10
2023-04-01T06:24:49.497Z,4.80
2023-04-01T06:27:31.059Z,4.27
2023-04-01T06:30:25.484Z,5.60
2023-04-01T06:32:54.903Z,4.65
2023-04-01T06:36:02.630Z,6.63
2023-04-01T06:38:47.606Z,3.00
2023-04-01T06:41:38.058Z,4.63
2023-04-01T06:44:32.559Z,5.80
2023-04-01T06:47:05.593Z,5.38
2023-04-01T06:50:05.746Z,4.55
2023-04-01T06:52:43.780Z,4.25
2023-04-01T06:55:27.292Z,3.83
2023-04-01T06:58:00.669Z,4.85
2023-04-01T07:00:38.149Z,6.05
2023-04-01T07:03:20.516Z,4.72
2023-04-01T07:05:47.365Z,3.78
2023-04-01T07:08:22.387Z,4.93
2023-04-01T07:10:54.636Z,4.72
2023-04-01T07:13:36.287Z,4.95
2023-04-01T07:16:12.033Z,5.22
2023-04-01T07:18:46.183Z,4.97
2023-04-01T07:21:26.822Z,4.97
2023-04-01T07:23:57.721Z,6.90
2023-04-01T07:26:26.102Z,6.57
2023-04-01T07:28:56.302Z,5.28
2023-04-01T07:31:43.522Z,5.20
2023-04-01T07:34:28.230Z,4.70
2023-04-01T07:37:05.556Z,6.53
2023-04-01T07:39:47.232Z,5.65
2023-04-01T07:42:36.314Z,5.93
2023-04-01T07:45:47.233Z,4.78
2023-04-01T07:48:25.724Z,4.87
2023-04-01T07:51:12.496Z,3.78
2023-04-01T07:53:42.149Z,5.28
2023-04-01T07:56:14.857Z,5.90
2023-04-01T07:58:50.168Z,4.32
2023-04-01T08:01:38.087Z,6.17
2023-04-01T08:04:21.228Z,6.38
2023-04-01T08:07:01.338Z,5.28
2023-04-01T08:09:33.279Z,4.60
2023-04-01T08:12:10.356Z,5.82
2023-04-01T08:14:58.676Z,5.73
2023-04-01T08:17:37.397Z,6.07
2023-04-01T08:20:28.376Z,5.78
2023-04-01T08:23:04.649Z,5.10
2023-04-01T08:25:36.212Z,4.50
2023-04-01T08:28:21.816Z,5.60
2023-04-01T08:31:02.973Z,5.78
2023-04-01T08:33:31.265Z,4.93
2023-04-01T08:36:07.847Z,5.55
2023-04-01T08:38:58.186Z,4.68
2023-04-01T08:41:44.070Z,5.47
2023-04-01T08:44:32.478Z,5.82
2023-04-01T08:47:21.398Z,4.93
2023-04-01T08:50:17.375Z,11.73
2023-04-01T08:52:58.482Z,9.38
2023-04-01T08:55:40.026Z,10.37
2023-04-01T08:58:23.870Z,8.10
2023-04-01T09:01:12.364Z,7.55
2023-04-01T09:04:18.253Z,7.63
2023-04-01T09:06:54.062Z,6.28
2023-04-01T09:09:38.809Z,7.17
2023-04-01T09:12:21.082Z,8.27
2023-04-01T09:15:32.702Z,10.68
2023-04-01T09:18:21.267Z,6.05
2023-04-01T09:21:09.768Z,7.95
2023-04-01T09:23:42.343Z,11.57
2023-04-01T09:26:52.760Z,9.77
2023-04-01T09:29:50.098Z,5.70
2023-04-01T09:32:54.610Z,10.30
2023-04-01T09:35:24.228Z,24.30
2023-04-01T09:37:55.781Z,54.10
2023-04-01T09:40:41.297Z,55.58
2023-04-01T09:43:23.964Z,59.65
2023-04-01T09:46:08.063Z,72.20
2023-04-01T09:49:04.593Z,60.85
2023-04-01T09:51:31.114Z,42.60
2023-04-01T09:54:25.725Z,27.85
2023-04-01T09:57:32.793Z,20.58
2023-04-01T09:59:59.335Z,9.75
2023-04-01T10:02:47.302Z,18.25
2023-04-01T10:05:44.181Z,9.67
2023-04-01T10:08:10.732Z,7.82
2023-04-01T10:10:43.112Z,10.27
2023-04-01T10:13:41.008Z,4.70
2023-04-01T10:16:44.596Z,7.45
2023-04-01T10:19:18.810Z,10.80
2023-04-01T10:21:58.071Z,5.30
2023-04-01T10:24:47.138Z,7.53
2023-04-01T10:27:34.419Z,5.53
2023-04-01T10:30:23.790Z,5.93
2023-04-01T10:33:16.659Z,6.90
2023-04-01T10:36:05.110Z,6.18
2023-04-01T10:38:53.196Z,8.45
2023-04-01T10:41:50.502Z,6.05
2023-04-01T10:44:41.874Z,7.15
2023-04-01T10:47:33.429Z,4.83
2023-04-01T10:50:25.671Z,4.50
2023-04-01T10:53:16.645Z,6.47
2023-04-01T10:55:49.008Z,10.82
2023-04-01T10:58:27.765Z,20.08
2023-04-01T11:00:59.796Z,28.77
2023-04-01T11:03:55.904Z,53.30
2023-04-01T11:06:59.981Z,54.25
2023-04-01T11:09:32.716Z,30.85
2023-04-01T11:12:11.317Z,28.42
2023-04-01T11:15:08.875Z,15.97
2023-04-01T11:17:46.192Z,11.10
2023-04-01T11:20:59.100Z,14.60
2023-04-01T11:24:16.817Z,5.57
2023-04-01T11:27:09.376Z,5.93
2023-04-01T11:29:58.708Z,8.70
2023-04-01T11:32:35.292Z,9.27
2023-04-01T11:35:20.758Z,10.15
2023-04-01T11:37:59.561Z,10.13
2023-04-01T11:40:58.504Z,11.93
2023-04-01T11:44:03.338Z,21.53
2023-04-01T11:46:35.745Z,11.55
2023-04-01T11:49:05.414Z,10.00
2023-04-01T11:51:32.001Z,40.92
2023-04-01T11:54:17.234Z,152.85
2023-04-01T11:56:59.026Z,179.67
2023-04-01T11:59:41.455Z,147.85
2023-04-01T12:02:35.775Z,125.93
2023-04-01T12:05:46.894Z,104.43
2023-04-01T12:08:30.431Z,94.80
2023-04-01T12:11:25.281Z,79.30
2023-04-01T12:14:00.841Z,77.28
2023-04-01T12:16:56.426Z,67.80
2023-04-01T12:20:00.056Z,64.53
2023-04-01T12:22:45.397Z,62.70
2023-04-01T12:25:24.351Z,50.73
2023-04-01T12:28:15.172Z,55.45
2023-04-01T12:31:08.954Z,45.80
2023-04-01T12:34:14.748Z,42.45
2023-04-01T12:36:56.930Z,34.85
2023-04-01T12:39:51.978Z,33.63
2023-04-01T12:42:51.473Z,35.25
2023-04-01T12:45:21.085Z,26.92
2023-04-01T12:48:02.676Z,26.27
2023-04-01T12:50:41.084Z,28.63
2023-04-01T12:53:10.781Z,26.37
2023-04-01T12:55:39.580Z,22.63
2023-04-01T12:58:33.443Z,21.73
2023-04-01T13:01:12.354Z,20.70
2023-04-01T13:03:59.318Z,21.27
2023-04-01T13:06:50.783Z,20.73
2023-04-01T13:09:23.043Z,21.52
2023-04-01T13:11:55.671Z,17.88
2023-04-01T13:14:35.202Z,13.95
2023-04-01T13:17:35.404Z,16.70
2023-04-01T13:20:10.852Z,15.50
2023-04-01T13:23:08.952Z,15.85
2023-04-01T13:25:39.891Z,16.25
2023-04-01T13:28:19.913Z,14.77
2023-04-01T13:30:56.613Z,16.42
2023-04-01T13:33:29.323Z,14.30
2023-04-01T13:36:25.316Z,14.27
2023-04-01T13:39:15.991Z,13.48
2023-04-01T13:42:05.764Z,13.93
2023-04-01T13:44:39.376Z,12.60
2023-04-01T13:47:12.686Z,15.07
2023-04-01T13:49:50.849Z,8.02
2023-04-01T13:52:28.406Z,7.40
2023-04-01T13:55:24.280Z,8.48
2023-04-01T13:58:03.714Z,9.60
2023-04-01T14:00:48.835Z,9.17
2023-04-01T14:03:50.778Z,6.93
2023-04-01T14:06:52.782Z,11.65
2023-04-01T14:09:37.803Z,6.68
2023-04-01T14:12:22.255Z,8.30
2023-04-01T14:14:48.924Z,7.70
2023-04-01T14:17:22.622Z,5.97
2023-04-01T14:20:18.835Z,3.92
2023-04-01T14:23:03.849Z,4.78
2023-04-01T14:25:39.672Z,3.47
2023-04-01T14:28:37.582Z,5.53
2023-04-01T14:31:24.424Z,6.80
2023-04-01T14:34:29.611Z,8.80
2023-04-01T14:37:20.427Z,136.82
2023-04-01T14:40:09.134Z,83.95
2023-04-01T14:42:54.957Z,8.87
2023-04-01T14:45:54.804Z,7.53
2023-04-01T14:48:41.536Z,8.13
2023-04-01T14:51:23.384Z,8.52
2023-04-01T14:53:59.918Z,5.80
2023-04-01T14:56:48.015Z,5.43
2023-04-01T14:59:18.001Z,6.40
2023-04-01T15:01:52.389Z,10.07
2023-04-01T15:04:19.233Z,35.30
2023-04-01T15:07:20.019Z,14.50
2023-04-01T15:10:02.970Z,12.07
2023-04-01T15:12:47.464Z,13.00
2023-04-01T15:15:33.437Z,12.73
2023-04-01T15:18:09.993Z,12.55
2023-04-01T15:21:07.610Z,9.68
2023-04-01T15:24:03.481Z,9.73
2023-04-01T15:26:38.972Z,8.60
2023-04-01T15:29:09.028Z,15.05
2023-04-01T15:31:50.797Z,19.23
2023-04-01T15:34:30.750Z,13.50
2023-04-01T15:37:31.946Z,9.20
2023-04-01T15:40:17.112Z,8.52
2023-04-01T15:42:45.939Z,6.00
2023-04-01T15:45:38.530Z,7.72
2023-04-01T15:48:11.431Z,8.10
2023-04-01T15:50:54.517Z,5.50
2023-04-01T15:53:56.922Z,7.75
2023-04-01T15:56:27.487Z,6.07
2023-04-01T15:59:05.159Z,8.20
2023-04-01T16:01:45.191Z,5.13
2023-04-01T16:04:30.426Z,5.63
2023-04-01T16:07:22.852Z,9.25
2023-04-01T16:10:01.522Z,6.90
2023-04-01T16:12:49.983Z,6.32
2023-04-01T16:15:36.976Z,6.70
2023-04-01T16:18:15.497Z,7.30
2023-04-01T16:20:53.036Z,7.05
2023-04-01T16:23:37.512Z,8.40
2023-04-01T16:26:14.599Z,6.50
2023-04-01T16:28:56.313Z,8.10
2023-04-01T16:31:28.778Z,6.00
2023-04-01T16:34:20.723Z,6.07
2023-04-01T16:37:03.376Z,4.97
2023-04-01T16:39:37.395Z,6.15
2023-04-01T16:42:32.208Z,4.53
2023-04-01T16:45:36.723Z,4.90
2023-04-01T16:49:00.554Z,5.70
2023-04-01T16:51:37.739Z,6.15
2023-04-01T16:54:17.629Z,4.30
2023-04-01T16:56:56.051Z,5.10
2023-04-01T16:59:49.150Z,6.40
2023-04-01T17:02:23.492Z,5.10
2023-04-01T17:04:50.035Z,7.18
2023-04-01T17:07:22.388Z,7.43
2023-04-01T17:10:04.321Z,9.27
2023-04-01T17:12:49.259Z,11.70
2023-04-01T17:15:32.415Z,10.52
2023-04-01T17:18:22.406Z,15.50
2023-04-01T17:21:01.201Z,16.63
2023-04-01T17:23:39.044Z,17.88
2023-04-01T17:26:20.720Z,10.50
2023-04-01T17:28:59.505Z,12.23
2023-04-01T17:32:03.837Z,10.43
2023-04-01T17:35:27.412Z,8.05
2023-04-01T17:38:35.838Z,8.30
2023-04-01T17:41:08.244Z,7.17
2023-04-01T17:43:56.030Z,9.27
2023-04-01T17:46:25.937Z,8.50
2023-04-01T17:49:06.654Z,9.57
2023-04-01T17:51:59.908Z,8.00
2023-04-01T17:54:37.187Z,8.13
2023-04-01T17:57:23.739Z,7.15
2023-04-01T18:00:16.222Z,7.18
2023-04-01T18:02:49.403Z,10.30
2023-04-01T18:05:39.128Z,9.05
2023-04-01T18:08:27.369Z,8.97
2023-04-01T18:11:34.251Z,8.98
2023-04-01T18:14:25.679Z,7.82
2023-04-01T18:17:12.481Z,6.40
2023-04-01T18:19:42.092Z,8.57
2023-04-01T18:22:41.470Z,6.20
2023-04-01T18:25:20.394Z,6.82
2023-04-01T18:28:25.981Z,8.50
2023-04-01T18:31:07.073Z,4.43
2023-04-01T18:33:41.026Z,8.90
2023-04-01T18:36:25.392Z,5.57
2023-04-01T18:39:19.950Z,3.97
2023-04-01T18:42:09.383Z,6.35
2023-04-01T18:44:36.711Z,4.75
2023-04-01T18:47:35.126Z,6.60
2023-04-01T18:50:23.671Z,7.17
2023-04-01T18:52:59.250Z,5.90
2023-04-01T18:55:43.785Z,7.75
2023-04-01T18:58:18.885Z,7.00
2023-04-01T19:01:08.570Z,12.10
2023-04-01T19:04:09.434Z,7.47
2023-04-01T19:06:45.840Z,4.80
2023-04-01T19:09:46.619Z,9.77
2023-04-01T19:12:34.521Z,18.40
2023-04-01T19:15:11.754Z,24.30
2023-04-01T19:17:53.521Z,31.43
2023-04-01T19:20:40.942Z,16.30
2023-04-01T19:23:12.910Z,11.20
2023-04-01T19:25:58.780Z,13.57
2023-04-01T19:28:37.469Z,12.32
2023-04-01T19:31:27.707Z,8.57
2023-04-01T19:34:31.711Z,10.80
2023-04-01T19:37:33.067Z,10.38
2023-04-01T19:40:11.600Z,11.55
2023-04-01T19:42:46.403Z,15.80
2023-04-01T19:45:37.331Z,11.13
2023-04-01T19:48:07.031Z,18.63
2023-04-01T19:50:53.276Z,19.38
2023-04-01T19:53:19.840Z,28.58
2023-04-01T19:56:24.915Z,20.00
2023-04-01T19:59:09.786Z,13.13
2023-04-01T20:01:47.395Z,8.88
2023-04-01T20:04:31.944Z,6.90
2023-04-01T20:07:04.556Z,8.77
2023-04-01T20:09:37.604Z,5.47
2023-04-01T20:12:43.868Z,4.70
2023-04-01T20:15:58.933Z,10.13
2023-04-01T20:18:57.020Z,15.43
2023-04-01T20:21:31.443Z,17.48
2023-04-01T20:24:05.539Z,24.98
2023-04-01T20:26:36.789Z,33.73
2023-04-01T20:29:41.281Z,37.83
2023-04-01T20:32:27.365Z,35.47
2023-04-01T20:34:59.652Z,23.15
2023-04-01T20:37:55.888Z,23.08
2023-04-01T20:40:37.230Z,14.27
2023-04-01T20:43:24.022Z,12.00
2023-04-01T20:46:05.698Z,7.18
2023-04-01T20:48:47.619Z,9.35
2023-04-01T20:51:35.796Z,6.47
2023-04-01T20:54:42.459Z,5.77
2023-04-01T20:57:30.538Z,6.05
2023-04-01T21:00:21.632Z,11.13
2023-04-01T21:03:00.649Z,6.13
2023-04-01T21:06:04.783Z,4.60
2023-04-01T21:09:08.675Z,6.57
2023-04-01T21:11:44.148Z,5.72
2023-04-01T21:14:46.256Z,6.88
2023-04-01T21:17:34.923Z,8.88
2023-04-01T21:20:20.350Z,5.25
2023-04-01T21:23:26.058Z,4.50
2023-04-01T21:26:02.785Z,10.15
2023-04-01T21:29:02.902Z,8.55
2023-04-01T21:31:54.472Z,7.57
2023-04-01T21:34:42.212Z,7.32
2023-04-01T21:37:33.837Z,7.33
2023-04-01T21:40:14.144Z,5.97
2023-04-01T21:43:02.759Z,9.98
2023-04-01T21:45:38.840Z,13.05
2023-04-01T21:48:06.076Z,8.85
2023-04-01T21:50:48.307Z,13.47
2023-04-01T21:53:36.495Z,10.90
2023-04-01T21:56:21.904Z,11.60
2023-04-01T21:59:15.445Z,14.68
2023-04-01T22:02:17.123Z,15.00
2023-04-01T22:05:08.519Z,17.73
2023-04-01T22:07:51.640Z,19.95
2023-04-01T22:10:48.193Z,19.00
2023-04-01T22:13:26.112Z,16.10
2023-04-01T22:16:02.256Z,12.18
2023-04-01T22:18:36.261Z,8.93
2023-04-01T22:21:24.209Z,8.55
2023-04-01T22:23:54.013Z,6.15
2023-04-01T22:26:34.835Z,4.72
2023-04-01T22:29:14.352Z,4.43
2023-04-01T22:32:22.812Z,4.37
2023-04-01T22:35:01.415Z,4.45
2023-04-01T22:37:36.124Z,4.00
2023-04-01T22:40:23.633Z,3.58
2023-04-01T22:43:00.524Z,6.32
2023-04-01T22:45:51.108Z,3.70
2023-04-01T22:48:39.613Z,2.95
2023-04-01T22:51:41.362Z,3.50
2023-04-01T22:54:29.810Z,3.47
2023-04-01T22:56:58.685Z,3.45
2023-04-01T22:59:48.026Z,3.60
2023-04-01T23:02:24.900Z,3.50
2023-04-01T23:05:03.319Z,4.32
2023-04-01T23:07:51.664Z,3.22
2023-04-01T23:10:45.678Z,3.80
2023-04-01T23:13:19.731Z,3.17
2023-04-01T23:15:49.138Z,4.35
2023-04-01T23:18:20.843Z,3.92
2023-04-01T23:20:58.983Z,5.95
2023-04-01T23:23:27.600Z,4.55
2023-04-01T23:26:08.299Z,3.37
2023-04-01T23:28:42.015Z,4.55
2023-04-01T23:31:38.011Z,4.30
2023-04-01T23:34:13.708Z,4.28
2023-04-01T23:36:49.708Z,4.53
2023-04-01T23:39:33.501Z,4.03
2023-04-01T23:42:25.340Z,3.42
2023-04-01T23:44:58.652Z,3.75
2023-04-01T23:47:29.581Z,3.97
2023-04-01T23:50:04.303Z,6.30
2023-04-01T23:52:35.940Z,4.53
2023-04-01T23:55:10.588Z,4.80
2023-04-01T23:57:40.577Z,6.03
